Time;durP1;ratioP1;P1;durP2;ratioP2;P2;SDS_P1;SDS_P2;PMS_P1;PMS_P2;Temp;Humidity;BMP_temperature;BMP_pressure;BME280_temperature;BME280_humidity;BME280_pressure;Samples;Min_cycle;Max_cycle;Signal;HPM_P1;HPM_P2
2022/04/27 00:00:36;;;;;;;;;6.00;3.75;;;;;-146.67;100.00;57155.34;5084520;28;63223;-81
2022/04/27 00:03:03;;;;;;;;;6.25;6.25;;;;;-146.67;100.00;57155.34;5084989;28;62450;-81
2022/04/27 00:05:29;;;;;;;;;6.00;6.00;;;;;-146.67;100.00;57155.34;5101127;27;62030;-81
2022/04/27 00:07:54;;;;;;;;;8.00;5.50;;;;;-146.67;100.00;57155.34;5084724;28;62029;-81
2022/04/27 00:10:22;;;;;;;;;6.50;5.50;;;;;-146.67;100.00;57155.34;5084030;28;61972;-81
2022/04/27 00:12:48;;;;;;;;;5.25;5.25;;;;;-146.67;100.00;57155.34;5085132;28;61903;-81
2022/04/27 00:15:14;;;;;;;;;4.75;4.00;;;;;-146.67;100.00;57155.34;5085017;28;62506;-81
2022/04/27 00:17:40;;;;;;;;;9.75;3.25;;;;;-146.67;100.00;57155.34;5085474;28;61928;-81
2022/04/27 00:20:08;;;;;;;;;5.00;4.00;;;;;-146.67;100.00;57155.34;5084122;28;62852;-81
2022/04/27 00:22:35;;;;;;;;;8.50;5.25;;;;;-146.67;100.00;57155.34;5100689;27;61858;-81
2022/04/27 00:25:03;;;;;;;;;6.75;5.25;;;;;-146.67;100.00;57155.34;5084413;28;61837;-81
2022/04/27 00:27:31;;;;;;;;;5.50;3.50;;;;;-146.67;100.00;57155.34;5085054;28;62025;-80
2022/04/27 00:29:57;;;;;;;;;8.00;6.75;;;;;-146.67;100.00;57155.34;5099988;27;63984;-81
2022/04/27 00:32:23;;;;;;;;;4.50;3.25;;;;;-146.67;100.00;57155.34;5099551;27;62052;-81
2022/04/27 00:34:48;;;;;;;;;8.50;4.00;;;;;-146.67;100.00;57155.34;5084235;27;62004;-81
2022/04/27 00:37:14;;;;;;;;;6.00;3.50;;;;;-146.67;100.00;57155.34;5084894;27;61821;-81
2022/04/27 00:39:40;;;;;;;;;10.25;3.75;;;;;-146.67;100.00;57155.34;5083500;27;62104;-80
2022/04/27 00:42:24;;;;;;;;;4.00;3.50;;;;;-146.67;100.00;57155.34;5084201;27;61905;-81
2022/04/27 00:44:49;;;;;;;;;8.25;6.00;;;;;-146.67;100.00;57155.34;5084534;28;61859;-80
2022/04/27 00:47:16;;;;;;;;;5.00;4.25;;;;;-146.67;100.00;57155.34;5100224;27;61870;-80
2022/04/27 00:49:54;;;;;;;;;8.50;7.00;;;;;-146.67;100.00;57155.34;5085298;28;61845;-81
2022/04/27 00:52:20;;;;;;;;;5.75;5.25;;;;;-146.67;100.00;57155.34;5086307;28;61811;-80
2022/04/27 00:54:51;;;;;;;;;10.00;4.00;;;;;-146.67;100.00;57155.34;5084809;28;61866;-81
2022/04/27 00:57:16;;;;;;;;;9.50;7.00;;;;;-146.67;100.00;57155.34;5087421;28;61928;-81
2022/04/27 00:59:42;;;;;;;;;5.50;4.50;;;;;-146.67;100.00;57155.34;5086504;28;61885;-81
2022/04/27 01:02:08;;;;;;;;;10.75;8.00;;;;;-146.67;100.00;57155.34;5101596;27;61847;-81
2022/04/27 01:04:35;;;;;;;;;7.00;4.50;;;;;-146.67;100.00;57155.34;5086598;28;61677;-81
2022/04/27 01:07:00;;;;;;;;;4.25;4.25;;;;;-146.67;100.00;57155.34;5102802;27;62326;-80
2022/04/27 01:09:28;;;;;;;;;10.75;8.00;;;;;-146.67;100.00;57155.34;5100429;27;63689;-81
2022/04/27 01:11:54;;;;;;;;;5.75;5.75;;;;;-146.67;100.00;57155.34;5086745;28;61830;-80
2022/04/27 01:14:20;;;;;;;;;6.50;5.00;;;;;-146.67;100.00;57155.34;5086273;28;61791;-80
2022/04/27 01:16:56;;;;;;;;;8.50;4.75;;;;;-146.67;100.00;57155.34;5086776;28;61899;-80
2022/04/27 01:19:23;;;;;;;;;5.50;5.50;;;;;-146.67;100.00;57155.34;5085790;28;62665;-80
2022/04/27 01:21:50;;;;;;;;;6.00;6.00;;;;;-146.67;100.00;57155.34;5102622;27;62098;-80
2022/04/27 01:24:24;;;;;;;;;7.75;6.00;;;;;-146.67;100.00;57155.34;5098156;28;61183;-80
2022/04/27 01:26:51;;;;;;;;;4.00;4.00;;;;;-146.67;100.00;57155.34;5088750;28;61683;-80
2022/04/27 01:29:17;;;;;;;;;6.75;6.00;;;;;-146.67;100.00;57155.34;5086698;28;62532;-80
2022/04/27 01:31:46;;;;;;;;;10.50;7.00;;;;;-146.67;100.00;57155.34;5086897;27;62191;-81
2022/04/27 01:34:12;;;;;;;;;7.00;5.00;;;;;-146.67;100.00;57155.34;5102516;27;61994;-81
2022/04/27 01:36:39;;;;;;;;;10.00;6.00;;;;;-146.67;100.00;57155.34;5086630;28;61687;-82
2022/04/27 01:39:05;;;;;;;;;6.00;6.00;;;;;-146.67;100.00;57155.34;5085543;28;61710;-81
2022/04/27 01:41:30;;;;;;;;;8.00;5.25;;;;;-146.67;100.00;57155.34;5101376;27;61879;-81
2022/04/27 01:43:57;;;;;;;;;9.25;7.25;;;;;-146.67;100.00;57155.34;5086528;27;61726;-82
2022/04/27 01:46:26;;;;;;;;;9.00;6.50;;;;;-146.67;100.00;57155.34;5085604;27;61960;-81
2022/04/27 01:48:52;;;;;;;;;9.50;7.00;;;;;-146.67;100.00;57155.34;5085548;27;62929;-82
2022/04/27 01:51:18;;;;;;;;;11.75;9.50;;;;;-146.67;100.00;57155.34;5102025;27;62091;-82
2022/04/27 01:56:28;;;;;;;;;10.50;5.00;;;;;-146.67;100.00;57155.34;5083790;28;61963;-81
2022/04/27 01:58:54;;;;;;;;;12.75;6.00;;;;;-146.67;100.00;57155.34;5082936;28;61737;-82
2022/04/27 02:01:21;;;;;;;;;7.00;7.00;;;;;-146.67;100.00;57155.34;5083327;27;62069;-81
2022/04/27 02:03:47;;;;;;;;;9.50;7.00;;;;;-146.67;100.00;57155.34;5082358;28;61949;-81
2022/04/27 02:06:16;;;;;;;;;8.00;6.00;;;;;-146.67;100.00;57155.34;5083255;28;61750;-81
2022/04/27 02:08:42;;;;;;;;;6.75;5.75;;;;;-146.67;100.00;57155.34;5082296;27;61866;-81
2022/04/27 02:11:07;;;;;;;;;14.00;10.00;;;;;-146.67;100.00;57155.34;5082970;27;62019;-82
2022/04/27 02:13:34;;;;;;;;;5.00;5.00;;;;;-146.67;100.00;57155.34;5083117;27;62092;-82
2022/04/27 02:16:01;;;;;;;;;11.25;7.00;;;;;-146.67;100.00;57155.34;5083605;27;61850;-81
2022/04/27 02:18:26;;;;;;;;;11.75;8.00;;;;;-146.67;100.00;57155.34;5081194;28;63892;-82
2022/04/27 02:20:52;;;;;;;;;7.75;6.50;;;;;-146.67;100.00;57155.34;5082657;27;61842;-81
2022/04/27 02:23:20;;;;;;;;;7.50;5.25;;;;;-146.67;100.00;57155.34;5081920;28;62566;-81
2022/04/27 02:25:45;;;;;;;;;9.50;9.50;;;;;-146.67;100.00;57155.34;5082935;28;62051;-82
2022/04/27 02:28:11;;;;;;;;;7.50;7.25;;;;;-146.67;100.00;57155.34;5082264;27;62013;-81
2022/04/27 02:30:37;;;;;;;;;11.50;8.50;;;;;-146.67;100.00;57155.34;5081625;28;61902;-82
2022/04/27 02:33:02;;;;;;;;;9.00;7.75;;;;;-146.67;100.00;57155.34;5082497;27;62006;-82
2022/04/27 02:35:28;;;;;;;;;12.00;7.75;;;;;-146.67;100.00;57155.34;5082150;27;62239;-82
2022/04/27 02:37:53;;;;;;;;;8.75;6.25;;;;;-146.67;100.00;57155.34;5114935;27;63466;-81
2022/04/27 02:40:19;;;;;;;;;6.75;6.75;;;;;-146.67;100.00;57155.34;5082038;27;62025;-81
2022/04/27 02:42:45;;;;;;;;;15.25;10.50;;;;;-146.67;100.00;57155.34;5082320;27;61742;-82
2022/04/27 02:45:10;;;;;;;;;15.00;9.00;;;;;-146.67;100.00;57155.34;5098695;27;61834;-82
2022/04/27 02:47:36;;;;;;;;;10.25;6.50;;;;;-146.67;100.00;57155.34;5097673;27;63634;-82
2022/04/27 02:52:48;;;;;;;;;10.00;9.50;;;;;-146.67;100.00;57155.34;5082544;28;61756;-81
2022/04/27 02:55:15;;;;;;;;;12.75;9.50;;;;;-146.67;100.00;57155.34;5082537;28;62060;-82
2022/04/27 02:57:40;;;;;;;;;14.00;10.00;;;;;-146.67;100.00;57155.34;5081174;28;61931;-82
2022/04/27 03:00:06;;;;;;;;;8.00;7.50;;;;;-146.67;100.00;57155.34;5082444;28;61790;-82
2022/04/27 03:02:32;;;;;;;;;7.75;7.75;;;;;-146.67;100.00;57155.34;5082354;28;62094;-82
2022/04/27 03:04:57;;;;;;;;;11.75;8.75;;;;;-146.67;100.00;57155.34;5082440;28;61789;-82
2022/04/27 03:07:23;;;;;;;;;19.00;11.75;;;;;-146.67;100.00;57155.34;5081766;28;61775;-82
2022/04/27 03:09:48;;;;;;;;;13.75;11.75;;;;;-146.67;100.00;57155.34;5081148;28;61834;-82
2022/04/27 03:12:14;;;;;;;;;16.75;12.00;;;;;-146.67;100.00;57155.34;5082062;28;61897;-82
2022/04/27 03:14:39;;;;;;;;;13.75;10.00;;;;;-146.67;100.00;57155.34;5097875;27;62287;-82
2022/04/27 03:17:05;;;;;;;;;20.00;11.25;;;;;-146.67;100.00;57155.34;5081589;28;61788;-82
2022/04/27 03:19:30;;;;;;;;;15.00;11.25;;;;;-146.67;100.00;57155.34;5082104;28;61965;-81
2022/04/27 03:21:56;;;;;;;;;16.50;12.25;;;;;-146.67;100.00;57155.34;5097755;27;62190;-81
2022/04/27 03:24:21;;;;;;;;;14.75;10.50;;;;;-146.67;100.00;57155.34;5082171;28;61718;-81
2022/04/27 03:26:47;;;;;;;;;9.00;9.00;;;;;-146.67;100.00;57155.34;5096874;27;64225;-82
2022/04/27 03:29:15;;;;;;;;;7.00;6.00;;;;;-146.67;100.00;57155.34;5082298;28;62233;-82
2022/04/27 03:31:41;;;;;;;;;14.75;11.25;;;;;-146.67;100.00;57155.34;5097405;27;61872;-81
2022/04/27 03:34:07;;;;;;;;;15.50;12.50;;;;;-146.67;100.00;57155.34;5081639;27;62052;-81
2022/04/27 03:36:32;;;;;;;;;13.50;12.50;;;;;-146.67;100.00;57155.34;5080187;28;63640;-82
2022/04/27 03:38:59;;;;;;;;;10.75;8.75;;;;;-146.67;100.00;57155.34;5081541;27;61932;-81
2022/04/27 03:41:27;;;;;;;;;12.75;10.75;;;;;-146.67;100.00;57155.34;5080127;28;62093;-81
2022/04/27 03:43:53;;;;;;;;;13.00;9.00;;;;;-146.67;100.00;57155.34;5081892;28;62121;-81
2022/04/27 03:46:22;;;;;;;;;16.75;9.75;;;;;-146.67;100.00;57155.34;5079673;28;63726;-82
2022/04/27 03:48:47;;;;;;;;;14.25;12.00;;;;;-146.67;100.00;57155.34;5080102;28;61766;-81
2022/04/27 03:51:13;;;;;;;;;13.25;10.00;;;;;-146.67;100.00;57155.34;5097739;27;61991;-82
2022/04/27 03:53:39;;;;;;;;;11.75;9.75;;;;;-146.67;100.00;57155.34;5081814;27;62171;-81
2022/04/27 03:56:05;;;;;;;;;16.50;11.25;;;;;-146.67;100.00;57155.34;5079322;28;63617;-81
2022/04/27 03:58:31;;;;;;;;;18.50;11.00;;;;;-146.67;100.00;57155.34;5081744;28;62120;-81
2022/04/27 04:00:57;;;;;;;;;16.75;10.25;;;;;-146.67;100.00;57155.34;5079939;28;61917;-81
2022/04/27 04:03:23;;;;;;;;;14.00;13.00;;;;;-146.67;100.00;57155.34;5081761;28;62021;-81
2022/04/27 04:05:48;;;;;;;;;15.50;10.50;;;;;-146.67;100.00;57155.34;5080668;28;62613;-82
2022/04/27 04:08:14;;;;;;;;;12.75;10.75;;;;;-146.67;100.00;57155.34;5082084;28;62059;-81
2022/04/27 04:10:40;;;;;;;;;19.50;15.00;;;;;-146.67;100.00;57155.34;5084918;28;62113;-82
2022/04/27 04:13:05;;;;;;;;;16.75;11.00;;;;;-146.67;100.00;57155.34;5085049;27;62191;-81
2022/04/27 04:15:31;;;;;;;;;15.50;14.50;;;;;-146.67;100.00;57155.34;5084289;28;61886;-82
2022/04/27 04:17:56;;;;;;;;;12.50;9.50;;;;;-146.67;100.00;57155.34;5084848;28;62301;-81
2022/04/27 04:20:22;;;;;;;;;13.25;12.00;;;;;-146.67;100.00;57155.34;5083434;28;62023;-80
2022/04/27 04:22:48;;;;;;;;;19.00;13.50;;;;;-146.67;100.00;57155.34;5085252;28;62218;-82
2022/04/27 04:30:43;;;;;;;;;17.75;13.50;;;;;-146.67;100.00;57155.34;5084696;28;61932;-81
2022/04/27 04:33:09;;;;;;;;;14.75;11.25;;;;;-146.67;100.00;57155.34;5084875;28;61781;-82
2022/04/27 04:35:37;;;;;;;;;19.75;13.50;;;;;-146.67;100.00;57155.34;5082371;27;65083;-82
2022/04/27 04:38:05;;;;;;;;;21.00;15.25;;;;;-146.67;100.00;57155.34;5099664;27;61784;-82
2022/04/27 04:40:31;;;;;;;;;16.75;13.75;;;;;-146.67;100.00;57155.34;5079658;28;62059;-82
2022/04/27 04:42:57;;;;;;;;;18.50;14.25;;;;;-146.67;100.00;57155.34;5084143;28;61930;-80
2022/04/27 04:45:25;;;;;;;;;13.00;12.50;;;;;-146.67;100.00;57155.34;5118469;27;64044;-82
2022/04/27 04:47:51;;;;;;;;;24.00;15.00;;;;;-146.67;100.00;57155.34;5082659;28;61987;-82
2022/04/27 04:50:16;;;;;;;;;15.75;12.75;;;;;-146.67;100.00;57155.34;5099839;27;61769;-82
2022/04/27 04:52:42;;;;;;;;;22.75;16.00;;;;;-146.67;100.00;57155.34;5084561;27;61730;-82
2022/04/27 04:55:08;;;;;;;;;16.00;13.50;;;;;-146.67;100.00;57155.34;5081528;28;64927;-82
2022/04/27 04:57:34;;;;;;;;;14.00;11.50;;;;;-146.67;100.00;57155.34;5083850;27;61868;-81
2022/04/27 05:00:00;;;;;;;;;23.75;18.00;;;;;-146.67;100.00;57155.34;5063790;28;61858;-83
2022/04/27 05:02:25;;;;;;;;;21.00;14.00;;;;;-146.67;100.00;57155.34;5072205;28;61877;-82
2022/04/27 05:04:51;;;;;;;;;19.00;15.75;;;;;-146.67;100.00;57155.34;5090365;27;64949;-82
2022/04/27 05:07:20;;;;;;;;;17.00;14.50;;;;;-146.67;100.00;57155.34;5082560;28;61905;-82
2022/04/27 05:09:45;;;;;;;;;17.25;13.75;;;;;-146.67;100.00;57155.34;5082432;28;62213;-81
2022/04/27 05:12:11;;;;;;;;;20.25;15.25;;;;;-146.67;100.00;57155.34;5083463;28;61775;-81
2022/04/27 05:14:36;;;;;;;;;18.00;17.25;;;;;-146.67;100.00;57155.34;5081717;28;61831;-81
2022/04/27 05:17:02;;;;;;;;;19.75;16.00;;;;;-146.67;100.00;57155.34;5083186;28;62367;-82
2022/04/27 05:19:28;;;;;;;;;18.50;13.25;;;;;-146.67;100.00;57155.34;5082919;28;61796;-82
2022/04/27 05:21:53;;;;;;;;;14.25;8.00;;;;;-146.67;100.00;57155.34;5099509;27;62107;-82
2022/04/27 05:24:19;;;;;;;;;15.00;12.25;;;;;-146.67;100.00;57155.34;5082330;28;61782;-82
2022/04/27 05:26:44;;;;;;;;;23.25;16.00;;;;;-146.67;100.00;57155.34;5083712;27;61909;-82
2022/04/27 05:32:00;;;;;;;;;16.00;13.00;;;;;-146.67;100.00;57155.34;5084256;28;61840;-85
2022/04/27 05:34:29;;;;;;;;;16.75;15.50;;;;;-146.67;100.00;57155.34;5081277;27;63688;-82
2022/04/27 05:36:55;;;;;;;;;20.50;18.50;;;;;-146.67;100.00;57155.34;5083740;28;61993;-83
2022/04/27 05:39:21;;;;;;;;;21.00;14.00;;;;;-146.67;100.00;57155.34;5083021;28;61926;-82
2022/04/27 05:41:50;;;;;;;;;17.75;15.00;;;;;-146.67;100.00;57155.34;5083539;27;62036;-82
2022/04/27 05:44:22;;;;;;;;;27.75;21.75;;;;;-146.67;100.00;57155.34;5097947;27;63922;-80
2022/04/27 05:46:48;;;;;;;;;23.75;16.00;;;;;-146.67;100.00;57155.34;5082707;28;62086;-81
2022/04/27 05:49:14;;;;;;;;;23.00;20.50;;;;;-146.67;100.00;57155.34;5082414;28;61894;-83
2022/04/27 05:51:39;;;;;;;;;19.25;17.25;;;;;-146.67;100.00;57155.34;5083298;27;61920;-83
2022/04/27 05:54:05;;;;;;;;;17.75;15.25;;;;;-146.67;100.00;57155.34;5097785;27;64829;-82
2022/04/27 05:56:30;;;;;;;;;21.25;14.75;;;;;-146.67;100.00;57155.34;5082352;27;61914;-81
2022/04/27 05:58:56;;;;;;;;;23.50;18.75;;;;;-146.67;100.00;57155.34;5082538;28;61925;-81
2022/04/27 06:01:21;;;;;;;;;21.00;16.50;;;;;-146.67;100.00;57155.34;5081538;28;61865;-81
2022/04/27 06:03:46;;;;;;;;;15.75;14.25;;;;;-146.67;100.00;57155.34;5082240;27;62560;-81
2022/04/27 06:06:12;;;;;;;;;25.00;14.25;;;;;-146.67;100.00;57155.34;5082457;27;61807;-81
2022/04/27 06:08:37;;;;;;;;;25.00;17.00;;;;;-146.67;100.00;57155.34;5097961;27;62529;-81
2022/04/27 06:11:03;;;;;;;;;24.25;16.50;;;;;-146.67;100.00;57155.34;5095707;27;61953;-81
2022/04/27 06:13:30;;;;;;;;;17.00;14.00;;;;;-146.67;100.00;57155.34;5087420;27;64852;-81
2022/04/27 06:15:57;;;;;;;;;25.75;19.25;;;;;-146.67;100.00;57155.34;5082895;27;61979;-81
2022/04/27 06:18:22;;;;;;;;;20.50;17.25;;;;;-146.67;100.00;57155.34;5097873;27;61964;-81
2022/04/27 06:20:48;;;;;;;;;20.50;13.25;;;;;-146.67;100.00;57155.34;5081332;28;61898;-81
2022/04/27 06:23:13;;;;;;;;;27.25;18.00;;;;;-146.67;100.00;57155.34;5082080;28;61869;-86
2022/04/27 06:25:40;;;;;;;;;28.25;18.50;;;;;-146.67;100.00;57155.34;5082435;27;61907;-86
2022/04/27 06:28:07;;;;;;;;;18.75;14.75;;;;;-146.67;100.00;57155.34;5082435;27;62356;-85
2022/04/27 06:30:35;;;;;;;;;25.00;18.00;;;;;-146.67;100.00;57155.34;5094028;27;62228;-86
2022/04/27 06:33:03;;;;;;;;;19.50;15.25;;;;;-146.67;100.00;57155.34;5074055;28;62636;-86
2022/04/27 06:35:28;;;;;;;;;25.25;16.25;;;;;-146.67;100.00;57155.34;5082009;27;61825;-85
2022/04/27 06:37:54;;;;;;;;;24.00;17.75;;;;;-146.67;100.00;57155.34;5083082;27;61786;-86
2022/04/27 06:40:20;;;;;;;;;22.25;18.00;;;;;-146.67;100.00;57155.34;5077666;27;61825;-86
2022/04/27 06:42:46;;;;;;;;;20.00;16.50;;;;;-146.67;100.00;57155.34;5082116;28;61943;-87
2022/04/27 06:45:12;;;;;;;;;26.00;16.50;;;;;-146.67;100.00;57155.34;5082467;27;61941;-87
2022/04/27 06:47:38;;;;;;;;;21.25;16.50;;;;;-146.67;100.00;57155.34;5082891;27;61723;-83
2022/04/27 06:50:04;;;;;;;;;19.00;17.00;;;;;-146.67;100.00;57155.34;5081442;28;61797;-81
2022/04/27 06:52:29;;;;;;;;;21.75;15.75;;;;;-146.67;100.00;57155.34;5080558;28;63699;-81
2022/04/27 06:54:55;;;;;;;;;20.75;15.50;;;;;-146.67;100.00;57155.34;5082512;27;61830;-81
2022/04/27 06:57:20;;;;;;;;;27.00;21.00;;;;;-146.67;100.00;57155.34;5081580;28;61924;-84
2022/04/27 06:59:46;;;;;;;;;21.75;16.00;;;;;-146.67;100.00;57155.34;5098316;27;61804;-81
2022/04/27 07:02:14;;;;;;;;;64.75;49.25;;;;;-146.67;100.00;57155.34;5081493;27;61930;-80
2022/04/27 07:04:48;;;;;;;;;73.75;56.50;;;;;-146.67;100.00;57155.34;5097474;27;61777;-81
2022/04/27 07:07:14;;;;;;;;;13.25;13.25;;;;;-146.67;100.00;57155.34;5082388;27;61970;-81
2022/04/27 07:09:39;;;;;;;;;27.50;20.50;;;;;-146.67;100.00;57155.34;5081182;27;61790;-81
2022/04/27 07:12:05;;;;;;;;;26.50;17.25;;;;;-146.67;100.00;57155.34;5080690;27;62662;-81
2022/04/27 07:14:30;;;;;;;;;27.25;19.00;;;;;-146.67;100.00;57155.34;5081621;27;61783;-81
2022/04/27 07:16:56;;;;;;;;;23.00;19.25;;;;;-146.67;100.00;57155.34;5081833;27;62712;-81
2022/04/27 07:19:21;;;;;;;;;18.25;14.00;;;;;-146.67;100.00;57155.34;5081839;27;61753;-81
2022/04/27 07:21:47;;;;;;;;;22.25;18.75;;;;;-146.67;100.00;57155.34;5096759;27;64700;-81
2022/04/27 07:24:12;;;;;;;;;21.25;14.25;;;;;-146.67;100.00;57155.34;5081171;27;61792;-80
2022/04/27 07:26:37;;;;;;;;;18.00;12.25;;;;;-146.67;100.00;57155.34;5081423;27;62428;-81
2022/04/27 07:29:03;;;;;;;;;22.00;20.00;;;;;-146.67;100.00;57155.34;5097196;27;61932;-85
2022/04/27 07:31:28;;;;;;;;;25.00;18.25;;;;;-146.67;100.00;57155.34;5081191;28;62042;-85
2022/04/27 07:33:54;;;;;;;;;23.75;20.75;;;;;-146.67;100.00;57155.34;5095060;27;61820;-85
2022/04/27 07:36:19;;;;;;;;;24.25;18.25;;;;;-146.67;100.00;57155.34;5097310;27;62066;-85
2022/04/27 07:38:45;;;;;;;;;18.50;17.00;;;;;-146.67;100.00;57155.34;5081657;28;62022;-86
2022/04/27 07:41:11;;;;;;;;;17.00;15.00;;;;;-146.67;100.00;57155.34;5080729;28;62017;-86
2022/04/27 07:43:36;;;;;;;;;25.50;19.00;;;;;-146.67;100.00;57155.34;5084404;28;62260;-86
2022/04/27 07:46:05;;;;;;;;;24.25;19.75;;;;;-146.67;100.00;57155.34;5101385;27;62153;-85
2022/04/27 07:48:33;;;;;;;;;23.50;18.75;;;;;-146.67;100.00;57155.34;5085564;28;61952;-86
2022/04/27 07:50:59;;;;;;;;;23.50;17.25;;;;;-146.67;100.00;57155.34;5084938;28;61873;-85
2022/04/27 07:53:25;;;;;;;;;23.00;18.75;;;;;-146.67;100.00;57155.34;5085200;28;62061;-86
2022/04/27 07:55:51;;;;;;;;;22.50;18.75;;;;;-146.67;100.00;57155.34;5085303;28;61753;-86
2022/04/27 07:58:16;;;;;;;;;24.75;19.25;;;;;-146.67;100.00;57155.34;5085186;28;62044;-86
2022/04/27 08:00:42;;;;;;;;;23.25;14.75;;;;;-146.67;100.00;57155.34;5099897;27;64588;-85
2022/04/27 08:03:07;;;;;;;;;23.50;18.00;;;;;-146.67;100.00;57155.34;5085079;28;61770;-86
2022/04/27 08:05:33;;;;;;;;;24.25;17.00;;;;;-146.67;100.00;57155.34;5085156;28;61812;-86
2022/04/27 08:07:59;;;;;;;;;24.50;15.25;;;;;-146.67;100.00;57155.34;5100673;27;61917;-85
2022/04/27 08:10:24;;;;;;;;;27.75;18.00;;;;;-146.67;100.00;57155.34;5084038;28;62566;-85
2022/04/27 08:12:50;;;;;;;;;25.25;16.00;;;;;-146.67;100.00;57155.34;5100525;27;61779;-86
2022/04/27 08:15:17;;;;;;;;;19.25;16.25;;;;;-146.67;100.00;57155.34;5083302;28;61946;-86
2022/04/27 08:17:59;;;;;;;;;32.25;22.50;;;;;-146.67;100.00;57155.34;5100328;27;62003;-86
2022/04/27 08:23:12;;;;;;;;;27.50;21.00;;;;;-146.67;100.00;57155.34;5084100;28;61807;-84
2022/04/27 08:25:39;;;;;;;;;27.00;20.00;;;;;-146.67;100.00;57155.34;5084529;27;62108;-83
2022/04/27 08:28:06;;;;;;;;;18.00;18.00;;;;;-146.67;100.00;57155.34;5098135;27;61994;-85
2022/04/27 08:30:36;;;;;;;;;17.50;17.50;;;;;-146.67;100.00;57155.34;5083416;28;62782;-85
2022/04/27 08:33:04;;;;;;;;;19.50;16.25;;;;;-146.67;100.00;57155.34;5100109;27;61883;-86
2022/04/27 08:35:31;;;;;;;;;19.75;19.00;;;;;-146.67;100.00;57155.34;5084480;27;61988;-85
2022/04/27 08:37:57;;;;;;;;;22.00;15.00;;;;;-146.67;100.00;57155.34;5084201;27;61716;-85
2022/04/27 08:40:24;;;;;;;;;24.00;18.25;;;;;-146.67;100.00;57155.34;5083022;27;61940;-85
2022/04/27 08:42:50;;;;;;;;;25.25;18.00;;;;;-146.67;100.00;57155.34;5062793;28;61733;-84
2022/04/27 08:45:17;;;;;;;;;30.75;21.00;;;;;-146.67;100.00;57155.34;5073577;28;61774;-86
2022/04/27 08:47:43;;;;;;;;;26.00;14.75;;;;;-146.67;100.00;57155.34;5084006;27;61736;-88
2022/04/27 08:50:18;;;;;;;;;25.25;20.75;;;;;-146.67;100.00;57155.34;5083288;28;61785;-86
2022/04/27 08:52:45;;;;;;;;;29.50;18.50;;;;;-146.67;100.00;57155.34;5082580;28;62051;-86
2022/04/27 08:55:12;;;;;;;;;25.75;21.75;;;;;-146.67;100.00;57155.34;5081700;28;61871;-86
2022/04/27 08:57:38;;;;;;;;;23.00;18.50;;;;;-146.67;100.00;57155.34;5084197;28;61885;-86
2022/04/27 09:00:06;;;;;;;;;23.50;15.75;;;;;-146.67;100.00;57155.34;5099139;27;63671;-85
2022/04/27 09:02:32;;;;;;;;;16.75;14.00;;;;;-146.67;100.00;57155.34;5084220;27;61633;-85
2022/04/27 09:05:16;;;;;;;;;27.50;20.50;;;;;-146.67;100.00;57155.34;5083322;27;61917;-87
2022/04/27 09:07:52;;;;;;;;;21.00;18.50;;;;;-146.67;100.00;57155.34;5083572;27;62070;-87
2022/04/27 09:10:27;;;;;;;;;21.75;19.25;;;;;-146.67;100.00;57155.34;5083095;27;62769;-93
2022/04/27 09:12:57;;;;;;;;;23.50;18.25;;;;;-146.67;100.00;57155.34;5098872;27;61857;-91
2022/04/27 09:15:25;;;;;;;;;22.00;19.50;;;;;-146.67;100.00;57155.34;5079789;28;62701;-91
2022/04/27 09:20:54;;;;;;;;;26.50;16.00;;;;;-146.67;100.00;57155.34;5079230;28;62041;-91
2022/04/27 09:23:27;;;;;;;;;26.50;20.00;;;;;-146.67;100.00;57155.34;5084124;27;62056;-89
2022/04/27 09:25:55;;;;;;;;;24.25;18.50;;;;;-146.67;100.00;57155.34;5083492;27;61768;-91
2022/04/27 09:28:32;;;;;;;;;29.25;17.50;;;;;-146.67;100.00;57155.34;5077471;28;61873;-90
2022/04/27 09:30:59;;;;;;;;;24.00;21.25;;;;;-146.67;100.00;57155.34;5079705;27;62095;-88
2022/04/27 09:33:58;;;;;;;;;28.25;21.75;;;;;-146.67;100.00;57155.34;5083189;27;62094;-92
2022/04/27 09:36:24;;;;;;;;;22.50;17.25;;;;;-146.67;100.00;57155.34;5039327;28;62096;-93
2022/04/27 09:38:55;;;;;;;;;26.50;21.50;;;;;-146.67;100.00;57155.34;5048750;28;62276;-93
2022/04/27 09:41:38;;;;;;;;;22.75;19.50;;;;;-146.67;100.00;57155.34;5035785;28;64312;-87
2022/04/27 09:44:03;;;;;;;;;27.50;21.00;;;;;-146.67;100.00;57155.34;5056818;28;62030;-88
2022/04/27 09:46:40;;;;;;;;;34.75;20.75;;;;;-146.67;100.00;57155.34;5034131;28;62101;-89
2022/04/27 09:49:07;;;;;;;;;19.00;16.75;;;;;-146.67;100.00;57155.34;5050021;28;62057;-86
2022/04/27 09:51:35;;;;;;;;;28.50;21.25;;;;;-146.67;100.00;57155.34;5029375;28;63733;-84
2022/04/27 09:54:03;;;;;;;;;25.25;21.25;;;;;-146.67;100.00;57155.34;5047316;28;62086;-88
2022/04/27 09:56:39;;;;;;;;;26.50;19.75;;;;;-146.67;100.00;57155.34;5049619;28;62295;-92
2022/04/27 09:59:09;;;;;;;;;23.50;19.00;;;;;-146.67;100.00;57155.34;5035332;28;62037;-86
2022/04/27 10:01:38;;;;;;;;;27.50;18.75;;;;;-146.67;100.00;57155.34;5028406;28;64087;-89
2022/04/27 10:04:04;;;;;;;;;30.50;22.50;;;;;-146.67;100.00;57155.34;5046111;28;61973;-87
2022/04/27 10:06:31;;;;;;;;;23.25;20.75;;;;;-146.67;100.00;57155.34;5039834;28;62089;-84
2022/04/27 10:08:59;;;;;;;;;36.00;21.75;;;;;-146.67;100.00;57155.34;5054676;28;62132;-85
2022/04/27 10:11:27;;;;;;;;;25.75;24.00;;;;;-146.67;100.00;57155.34;5057729;28;62041;-84
2022/04/27 10:13:54;;;;;;;;;31.25;26.25;;;;;-146.67;100.00;57155.34;5082461;27;61947;-83
2022/04/27 10:16:22;;;;;;;;;28.75;17.50;;;;;-146.67;100.00;57155.34;5089878;27;62296;-83
2022/04/27 10:18:47;;;;;;;;;24.00;21.50;;;;;-146.67;100.00;57155.34;5082608;28;61859;-84
2022/04/27 10:21:14;;;;;;;;;24.25;18.75;;;;;-146.67;100.00;57155.34;5081294;27;61813;-83
2022/04/27 10:23:44;;;;;;;;;20.75;17.75;;;;;-146.67;100.00;57155.34;5081839;27;61808;-84
2022/04/27 10:26:13;;;;;;;;;20.00;16.00;;;;;-146.67;100.00;57155.34;5082310;27;61953;-83
2022/04/27 10:28:43;;;;;;;;;20.25;17.00;;;;;-146.67;100.00;57155.34;5079621;28;62053;-83
2022/04/27 10:31:09;;;;;;;;;22.00;16.75;;;;;-146.67;100.00;57155.34;5082160;27;62082;-81
2022/04/27 10:33:49;;;;;;;;;18.75;14.00;;;;;-146.67;100.00;57155.34;5081980;27;61819;-83
2022/04/27 10:36:22;;;;;;;;;22.00;21.50;;;;;-146.67;100.00;57155.34;5081360;27;62137;-83
2022/04/27 10:39:28;;;;;;;;;23.75;19.50;;;;;-146.67;100.00;57155.34;5081918;27;62149;-82
2022/04/27 10:42:18;;;;;;;;;22.75;17.00;;;;;-146.67;100.00;57155.34;5057979;28;62724;-82
2022/04/27 10:44:50;;;;;;;;;24.75;19.50;;;;;-146.67;100.00;57155.34;5059289;28;61851;-84
2022/04/27 10:47:20;;;;;;;;;22.25;18.75;;;;;-146.67;100.00;57155.34;5042706;28;62011;-84
2022/04/27 10:50:05;;;;;;;;;25.50;17.50;;;;;-146.67;100.00;57155.34;5051454;28;61965;-84
2022/04/27 10:52:42;;;;;;;;;24.00;22.00;;;;;-146.67;100.00;57155.34;5049451;28;62352;-84
2022/04/27 10:55:34;;;;;;;;;22.25;15.75;;;;;-146.67;100.00;57155.34;5049309;28;62038;-85
2022/04/27 10:58:13;;;;;;;;;23.00;19.00;;;;;-146.67;100.00;57155.34;5047958;28;61904;-84
2022/04/27 11:01:05;;;;;;;;;31.25;19.75;;;;;-146.67;100.00;57155.34;5048202;28;62004;-84
2022/04/27 11:03:36;;;;;;;;;25.75;15.25;;;;;-146.67;100.00;57155.34;4996136;28;62132;-82
2022/04/27 11:06:09;;;;;;;;;15.75;14.00;;;;;-146.67;100.00;57155.34;4982653;28;61915;-81
2022/04/27 11:08:56;;;;;;;;;17.75;14.75;;;;;-146.67;100.00;57155.34;4996457;28;62503;-82
2022/04/27 11:11:26;;;;;;;;;15.00;12.75;;;;;-146.67;100.00;57155.34;4997291;28;61872;-83
2022/04/27 11:13:59;;;;;;;;;14.75;12.75;;;;;-146.67;100.00;57155.34;4996884;28;63600;-83
2022/04/27 11:16:25;;;;;;;;;23.00;17.75;;;;;-146.67;100.00;57155.34;4996615;28;61786;-83
2022/04/27 11:18:55;;;;;;;;;24.75;16.25;;;;;-146.67;100.00;57155.34;4981965;28;61943;-85